createdAt,value
2023-03-02T00:00:57.584Z,0.50
2023-03-02T00:04:57.779Z,0.50
2023-03-02T00:08:57.766Z,0.51
2023-03-02T00:12:57.852Z,0.51
2023-03-02T00:16:58.013Z,0.51
2023-03-02T00:20:58.171Z,0.50
2023-03-02T00:24:58.291Z,0.50
2023-03-02T00:28:58.330Z,0.50
2023-03-02T00:32:58.465Z,0.50
2023-03-02T00:36:58.482Z,0.51
2023-03-02T00:40:58.536Z,0.51
2023-03-02T00:44:58.615Z,0.50
2023-03-02T00:48:58.657Z,0.51
2023-03-02T00:52:58.669Z,0.50
2023-03-02T00:56:58.737Z,0.50
2023-03-02T01:00:58.808Z,0.50
2023-03-02T01:04:58.789Z,0.51
2023-03-02T01:08:58.836Z,0.51
2023-03-02T01:12:58.900Z,0.50
2023-03-02T01:16:58.884Z,0.50
2023-03-02T01:20:58.943Z,0.51
2023-03-02T01:24:58.961Z,0.51
2023-03-02T01:28:58.979Z,0.50
2023-03-02T01:32:59.014Z,0.51
2023-03-02T01:36:58.999Z,0.50
2023-03-02T01:40:58.942Z,0.50
2023-03-02T01:44:58.956Z,0.50
2023-03-02T01:48:58.942Z,0.51
2023-03-02T01:52:58.934Z,0.51
2023-03-02T01:56:59.004Z,0.50
2023-03-02T02:00:58.971Z,0.51
2023-03-02T02:04:58.922Z,0.51
2023-03-02T02:08:58.894Z,0.51
2023-03-02T02:12:58.868Z,0.51
2023-03-02T02:16:58.933Z,0.51
2023-03-02T02:20:58.855Z,0.51
2023-03-02T02:24:58.857Z,0.51
2023-03-02T02:28:58.905Z,0.51
2023-03-02T02:32:58.793Z,0.51
2023-03-02T02:36:58.778Z,0.51
2023-03-02T02:40:58.806Z,0.51
2023-03-02T02:44:58.875Z,0.51
2023-03-02T02:48:58.800Z,0.52
2023-03-02T02:52:58.770Z,0.51
2023-03-02T02:56:58.771Z,0.51
2023-03-02T03:00:58.875Z,0.50
2023-03-02T03:04:58.841Z,0.51
2023-03-02T03:08:58.858Z,0.51
2023-03-02T03:12:58.836Z,0.51
2023-03-02T03:16:58.936Z,0.51
2023-03-02T03:20:58.882Z,0.51
2023-03-02T03:24:58.902Z,0.51
2023-03-02T03:28:58.936Z,0.51
2023-03-02T03:32:58.960Z,0.50
2023-03-02T03:36:58.985Z,0.51
2023-03-02T03:40:58.999Z,0.51
2023-03-02T03:44:59.024Z,0.51
2023-03-02T03:48:59.051Z,0.51
2023-03-02T03:52:58.976Z,0.51
2023-03-02T03:56:58.984Z,0.51
2023-03-02T04:00:58.996Z,0.51
2023-03-02T04:04:58.955Z,0.51
2023-03-02T04:08:58.934Z,0.51
2023-03-02T04:12:58.943Z,0.50
2023-03-02T04:16:58.919Z,0.51
2023-03-02T04:20:58.924Z,0.51
2023-03-02T04:24:58.886Z,0.50
2023-03-02T04:28:58.882Z,0.51
2023-03-02T04:32:58.887Z,0.51
2023-03-02T04:36:58.865Z,0.50
2023-03-02T04:40:58.828Z,0.50
2023-03-02T04:44:58.860Z,0.51
2023-03-02T04:48:58.809Z,0.51
2023-03-02T04:52:58.878Z,0.51
2023-03-02T04:56:58.785Z,0.51
2023-03-02T05:00:58.742Z,0.51
2023-03-02T05:04:58.732Z,0.51
2023-03-02T05:08:58.681Z,0.50
2023-03-02T05:12:58.672Z,0.50
2023-03-02T05:16:58.698Z,0.51
2023-03-02T05:20:58.645Z,0.50
2023-03-02T05:24:58.666Z,0.51
2023-03-02T05:28:58.632Z,0.51
2023-03-02T05:32:58.637Z,0.51
2023-03-02T05:36:58.606Z,0.51
2023-03-02T05:40:58.602Z,0.50
2023-03-02T05:44:58.619Z,0.51
2023-03-02T05:48:58.582Z,0.51
2023-03-02T05:52:58.585Z,0.53
2023-03-02T05:56:58.555Z,0.53
2023-03-02T06:00:58.551Z,0.55
2023-03-02T06:04:58.531Z,0.60
2023-03-02T06:08:58.555Z,0.64
2023-03-02T06:12:58.495Z,0.68
2023-03-02T06:16:58.574Z,0.75
2023-03-02T06:20:58.479Z,0.83
2023-03-02T06:24:58.460Z,0.88
2023-03-02T06:28:58.876Z,0.89
2023-03-02T06:32:58.424Z,0.96
2023-03-02T06:36:58.468Z,0.92
2023-03-02T06:40:58.439Z,1.04
2023-03-02T06:44:58.595Z,1.03
2023-03-02T06:48:58.613Z,1.09
2023-03-02T06:52:58.662Z,1.13
2023-03-02T06:56:58.534Z,1.18
2023-03-02T07:00:59.140Z,1.18
2023-03-02T07:04:58.874Z,1.27
2023-03-02T07:08:59.113Z,1.43
2023-03-02T07:12:58.778Z,1.41
2023-03-02T07:16:58.800Z,1.48
2023-03-02T07:20:58.706Z,1.68
2023-03-02T07:24:58.674Z,1.67
2023-03-02T07:28:59.107Z,1.66
2023-03-02T07:32:58.613Z,1.64
2023-03-02T07:36:58.545Z,1.63
2023-03-02T07:40:58.630Z,1.75
2023-03-02T07:44:58.493Z,1.86
2023-03-02T07:48:58.511Z,1.79
2023-03-02T07:52:59.935Z,2.05
2023-03-02T07:56:59.147Z,2.33
2023-03-02T08:00:58.651Z,2.43
2023-03-02T08:04:58.634Z,2.60
2023-03-02T08:08:58.796Z,2.72
2023-03-02T08:12:58.730Z,2.89
2023-03-02T08:16:58.733Z,2.93
2023-03-02T08:20:58.694Z,2.96
2023-03-02T08:24:58.617Z,2.98
2023-03-02T08:28:58.607Z,3.04
2023-03-02T08:32:58.988Z,3.06
2023-03-02T08:36:58.555Z,3.24
2023-03-02T08:40:58.622Z,3.21
2023-03-02T08:44:58.688Z,3.30
2023-03-02T08:48:58.635Z,3.13
2023-03-02T08:52:58.411Z,2.65
2023-03-02T08:56:58.666Z,2.17
2023-03-02T09:00:58.726Z,1.98
2023-03-02T09:04:59.219Z,1.77
2023-03-02T09:08:58.934Z,1.62
2023-03-02T09:12:58.995Z,1.53
2023-03-02T09:16:59.178Z,1.47
2023-03-02T09:20:59.653Z,1.44
2023-03-02T09:24:59.333Z,1.42
2023-03-02T09:28:59.498Z,1.27
2023-03-02T09:32:59.609Z,1.27
2023-03-02T09:36:59.724Z,1.28
2023-03-02T09:40:59.683Z,1.01
2023-03-02T09:44:59.335Z,1.28
2023-03-02T09:48:59.688Z,1.69
2023-03-02T09:52:59.686Z,1.71
2023-03-02T09:56:59.669Z,1.96
2023-03-02T10:00:59.178Z,1.90
2023-03-02T10:04:59.151Z,1.85
2023-03-02T10:08:59.129Z,1.81
2023-03-02T10:12:59.137Z,1.76
2023-03-02T10:16:59.184Z,1.70
2023-03-02T10:20:59.312Z,1.65
2023-03-02T10:24:59.403Z,1.55
2023-03-02T10:28:59.752Z,1.62
2023-03-02T10:32:59.719Z,1.54
2023-03-02T10:36:59.443Z,1.69
2023-03-02T10:40:59.706Z,1.76
2023-03-02T10:44:59.720Z,1.68
2023-03-02T10:49:00.201Z,0.95
2023-03-02T10:53:01.556Z,1.30
2023-03-02T10:56:59.917Z,1.29
2023-03-02T11:00:59.918Z,1.34
2023-03-02T11:05:00.295Z,1.33
2023-03-02T11:08:59.791Z,1.35
2023-03-02T11:12:59.767Z,1.30
2023-03-02T11:17:01.376Z,1.40
2023-03-02T11:20:59.716Z,1.36
2023-03-02T11:24:59.638Z,1.35
2023-03-02T11:28:59.583Z,1.29
2023-03-02T11:32:59.684Z,1.23
2023-03-02T11:37:00.204Z,1.13
2023-03-02T11:41:00.235Z,1.08
2023-03-02T11:45:00.004Z,1.09
2023-03-02T11:49:00.212Z,1.06
2023-03-02T11:53:00.212Z,0.99
2023-03-02T11:57:00.689Z,1.06
2023-03-02T12:01:00.368Z,1.01
2023-03-02T12:05:00.428Z,1.14
2023-03-02T12:09:00.452Z,1.07
2023-03-02T12:13:00.718Z,1.14
2023-03-02T12:17:00.473Z,1.05
2023-03-02T12:21:00.413Z,1.01
2023-03-02T12:25:00.718Z,0.99
2023-03-02T12:29:00.705Z,1.07
2023-03-02T12:33:00.746Z,1.06
2023-03-02T12:37:00.434Z,1.07
2023-03-02T12:41:00.742Z,1.06
2023-03-02T12:45:00.785Z,1.12
2023-03-02T12:49:00.601Z,0.70
2023-03-02T12:53:00.766Z,0.86
2023-03-02T12:57:00.822Z,0.76
2023-03-02T13:01:01.020Z,0.72
2023-03-02T13:05:01.238Z,0.68
2023-03-02T13:09:01.410Z,0.65
2023-03-02T13:13:01.496Z,0.64
2023-03-02T13:17:01.821Z,0.65
2023-03-02T13:21:02.257Z,0.57
2023-03-02T13:25:01.939Z,0.52
2023-03-02T13:29:02.251Z,0.53
2023-03-02T13:33:02.756Z,0.54
2023-03-02T13:37:02.593Z,0.74
2023-03-02T13:41:02.799Z,0.53
2023-03-02T13:45:03.011Z,0.65
2023-03-02T13:49:10.113Z,0.61
2023-03-02T13:53:04.185Z,0.50
2023-03-02T13:57:03.142Z,0.50
2023-03-02T14:01:03.117Z,0.59
2023-03-02T14:05:03.194Z,0.58
2023-03-02T14:09:03.036Z,0.57
2023-03-02T14:13:03.034Z,0.55
2023-03-02T14:17:02.961Z,0.55
2023-03-02T14:21:03.314Z,0.57
2023-03-02T14:25:02.892Z,0.60
2023-03-02T14:29:05.811Z,0.62
2023-03-02T14:33:02.788Z,0.63
2023-03-02T14:37:02.798Z,0.70
2023-03-02T14:41:03.316Z,0.58
2023-03-02T14:45:02.749Z,0.64
2023-03-02T14:49:02.648Z,0.65
2023-03-02T14:57:21.806Z,0.50
2023-03-02T15:01:21.831Z,0.50
2023-03-02T15:05:21.716Z,0.51
2023-03-02T15:09:22.015Z,0.57
2023-03-02T15:13:22.006Z,0.54
2023-03-02T15:17:22.049Z,0.62
2023-03-02T15:21:21.549Z,0.66
2023-03-02T15:25:21.537Z,0.57
2023-03-02T15:29:21.495Z,0.55
2023-03-02T15:33:21.486Z,0.58
2023-03-02T15:37:21.433Z,0.56
2023-03-02T15:41:21.413Z,0.63
2023-03-02T15:45:21.353Z,0.63
2023-03-02T15:49:21.307Z,0.56
2023-03-02T15:53:21.314Z,0.63
2023-03-02T15:57:21.260Z,0.60
2023-03-02T16:01:21.232Z,0.56
2023-03-02T16:05:21.181Z,0.57
2023-03-02T16:09:21.132Z,0.53
2023-03-02T16:13:21.118Z,0.50
2023-03-02T16:17:21.058Z,0.55
2023-03-02T16:21:21.050Z,0.61
2023-03-02T16:25:21.011Z,0.63
2023-03-02T16:29:20.971Z,0.60
2023-03-02T16:33:20.922Z,0.57
2023-03-02T16:37:21.065Z,0.61
2023-03-02T16:41:21.052Z,0.67
2023-03-02T16:45:21.101Z,0.66
2023-03-02T16:49:21.206Z,0.69
2023-03-02T16:53:21.297Z,0.67
2023-03-02T16:57:21.374Z,0.79
2023-03-02T17:01:21.614Z,0.70
2023-03-02T17:05:21.695Z,0.65
2023-03-02T17:09:21.766Z,0.60
2023-03-02T17:13:21.916Z,0.60
2023-03-02T17:17:22.131Z,0.60
2023-03-02T17:21:22.307Z,0.51
2023-03-02T17:25:22.533Z,0.52
2023-03-02T17:29:22.536Z,0.51
2023-03-02T17:33:22.466Z,0.54
2023-03-02T17:37:22.445Z,0.51
2023-03-02T17:41:22.362Z,0.55
2023-03-02T17:45:22.350Z,0.52
2023-03-02T17:49:22.285Z,0.51
2023-03-02T17:53:22.258Z,0.51
2023-03-02T17:57:22.250Z,0.53
2023-03-02T18:01:22.180Z,0.51
2023-03-02T18:05:22.202Z,0.50
2023-03-02T18:09:22.215Z,0.52
2023-03-02T18:13:22.186Z,0.56
2023-03-02T18:17:22.258Z,0.67
2023-03-02T18:21:22.344Z,0.70
2023-03-02T18:25:22.478Z,0.74
2023-03-02T18:29:22.658Z,0.76
2023-03-02T18:33:22.759Z,0.77
2023-03-02T18:37:22.942Z,0.71
2023-03-02T18:41:23.157Z,0.68
2023-03-02T18:45:23.364Z,0.61
2023-03-02T18:49:23.323Z,0.69
2023-03-02T18:53:23.308Z,0.78
2023-03-02T18:57:23.280Z,0.82
2023-03-02T19:01:23.237Z,0.92
2023-03-02T19:05:24.106Z,0.99
2023-03-02T19:09:23.162Z,1.07
2023-03-02T19:13:23.110Z,1.10
2023-03-02T19:17:23.121Z,1.11
2023-03-02T19:21:23.066Z,1.13
2023-03-02T19:25:23.059Z,1.16
2023-03-02T19:29:23.013Z,1.13
2023-03-02T19:33:23.003Z,1.14
2023-03-02T19:37:22.931Z,1.09
2023-03-02T19:41:22.898Z,1.05
2023-03-02T19:45:22.902Z,1.05
2023-03-02T19:49:22.815Z,1.09
2023-03-02T19:53:22.769Z,0.95
2023-03-02T19:57:22.753Z,0.87
2023-03-02T20:01:22.750Z,0.76
2023-03-02T20:05:22.683Z,0.71
2023-03-02T20:09:22.636Z,0.73
2023-03-02T20:13:22.635Z,0.69
2023-03-02T20:17:22.754Z,0.69
2023-03-02T20:21:22.927Z,0.78
2023-03-02T20:25:23.029Z,0.71
2023-03-02T20:29:23.195Z,0.73
2023-03-02T20:33:23.290Z,0.74
2023-03-02T20:37:23.466Z,0.72
2023-03-02T20:41:23.614Z,0.81
2023-03-02T20:45:23.801Z,0.89
2023-03-02T20:49:24.002Z,0.94
2023-03-02T20:53:24.259Z,0.90
2023-03-02T20:57:24.213Z,0.90
2023-03-02T21:01:24.218Z,0.87
2023-03-02T21:05:24.091Z,0.89
2023-03-02T21:09:24.077Z,0.86
2023-03-02T21:13:24.041Z,0.82
2023-03-02T21:17:24.026Z,0.76
2023-03-02T21:21:32.624Z,0.75
2023-03-02T21:25:24.938Z,0.76
2023-03-02T21:29:23.872Z,0.87
2023-03-02T21:33:23.848Z,0.94
2023-03-02T21:37:23.833Z,0.99
2023-03-02T21:41:23.774Z,1.02
2023-03-02T21:45:23.760Z,1.03
2023-03-02T21:49:23.737Z,1.02
2023-03-02T21:53:23.701Z,0.96
2023-03-02T21:57:23.637Z,0.97
2023-03-02T22:01:23.630Z,0.85
2023-03-02T22:05:23.678Z,0.87
2023-03-02T22:09:23.736Z,0.92
2023-03-02T22:13:23.807Z,0.91
2023-03-02T22:17:24.839Z,0.89
2023-03-02T22:21:24.005Z,0.90
2023-03-02T22:25:24.076Z,0.85
2023-03-02T22:29:24.201Z,0.82
2023-03-02T22:33:24.284Z,0.80
2023-03-02T22:37:24.409Z,0.77
2023-03-02T22:41:24.584Z,0.74
2023-03-02T22:45:24.727Z,0.69
2023-03-02T22:49:24.866Z,0.72
2023-03-02T22:53:25.093Z,0.77
2023-03-02T22:57:25.285Z,0.80
2023-03-02T23:01:25.288Z,0.80
2023-03-02T23:05:25.278Z,0.78
2023-03-02T23:09:25.184Z,0.83
2023-03-02T23:13:27.279Z,0.84
2023-03-02T23:17:25.149Z,0.77
2023-03-02T23:21:26.218Z,0.74
2023-03-02T23:25:25.686Z,0.73
2023-03-02T23:29:25.242Z,0.80
2023-03-02T23:33:25.441Z,0.79
2023-03-02T23:37:25.621Z,0.80
2023-03-02T23:41:25.610Z,0.80
2023-03-02T23:45:25.530Z,0.90
2023-03-02T23:49:25.535Z,0.76
2023-03-02T23:53:25.487Z,0.65
2023-03-02T23:57:25.417Z,0.53
